Latest Weather Observations for The Monument

IDQ60801

Issued at 6:05 am EST Saturday 22 November 2014 (issued every 30 minutes, with the page automatically refreshed every 10 minutes)

About weather observations | Map of weather stations | Latest weather observations for QLD | Other Formats
Station Details ID: 037034 Name: THE MONUMENT AIRPORT Lat: -21.81 Lon: 139.93 Height: 288.4 m
Data from the previous 72 hours. | See also: Recent months at The Monument
Date/Time
EST
Temp
°C
App
Temp
°C
Dew
Point
Rel
Hum
%
Delta-T
°C
Wind Press
QNH
hPa
Press
MSL
hPa
Rain
since 9 am
mm
Dir
 
Spd
km/h
Gust
km/h
Spd
kts
Gust
kts
22/06:00am 25.6 27.1 18.8 66 4.4 N 9 17 5 9 1011.6 1009.6 1.0
22/05:30am 25.6 27.2 18.3 64 4.7 N 7 13 4 7 1011.2 1009.2 1.0
22/05:00am 26.4 27.0 18.5 62 5.1 N 13 22 7 12 1011.5 1009.5 1.0
22/04:30am 27.0 27.3 18.0 58 5.8 NW 13 20 7 11 1011.6 1009.6 1.0
22/04:00am 27.0 26.1 18.3 59 5.6 N 20 32 11 17 1010.5 1008.5 1.0
22/03:30am 27.3 25.1 18.6 59 5.6 N 28 39 15 21 1010.4 1008.4 1.0
22/03:00am 28.3 26.5 17.8 53 6.7 NNE 24 35 13 19 1010.2 1008.2 1.0
22/02:30am 29.4 27.6 16.9 47 7.9 NNE 22 32 12 17 1009.9 1007.9 1.0
22/02:00am 29.7 26.2 16.5 45 8.4 N 30 41 16 22 1009.6 1007.5 1.0
22/01:30am 29.8 25.2 16.2 43 8.6 NNE 35 54 19 29 1010.0 1008.0 1.0
22/01:28am 29.8 25.2 16.2 43 8.6 NNE 35 54 19 29 1010.1 1008.1 1.0
22/01:23am 29.8 25.2 16.2 43 8.6 NNE 35 46 19 25 1010.2 1008.2 1.0
22/01:00am 30.0 29.0 15.7 42 9.0 N 15 20 8 11 1009.7 1007.6 1.0
22/12:30am 29.6 28.5 14.2 39 9.4 N 13 17 7 9 1009.9 1007.9 1.0
22/12:00am 30.1 28.6 13.0 35 10.3 N 13 17 7 9 1010.0 1008.0 1.0
 
Date/Time
EST
Temp
°C
App
Temp
°C
Dew
Point
Rel
Hum
%
Delta-T
°C
Wind Press
QNH
hPa
Press
MSL
hPa
Rain
since 9 am
mm
Dir
 
Spd
km/h
Gust
km/h
Spd
kts
Gust
kts
21/11:30pm 30.7 28.4 13.0 33 10.7 NNE 17 24 9 13 1010.5 1008.5 1.0
21/11:00pm 31.1 29.9 12.9 32 11.0 NNW 11 15 6 8 1010.3 1008.3 1.0
21/10:30pm 31.4 30.0 12.2 30 11.4 N 11 15 6 8 1010.0 1008.0 1.0
21/10:00pm 31.8 30.1 12.6 31 11.5 N 13 20 7 11 1010.2 1008.2 1.0
21/09:30pm 32.2 29.3 12.4 30 11.9 N 19 30 10 16 1009.9 1007.9 1.0
21/09:00pm 33.0 28.7 12.1 28 12.5 N 26 35 14 19 1009.8 1007.8 1.0
21/08:30pm 32.2 27.6 12.4 30 11.9 NNW 28 37 15 20 1009.8 1007.8 1.0
21/08:00pm 31.0 25.8 13.3 34 10.7 NNW 33 48 18 26 1009.6 1007.5 1.0
21/07:30pm 31.1 27.0 13.8 34 10.6 NNW 28 39 15 21 1010.0 1008.0 1.0
21/07:00pm 30.6 27.7 16.2 41 9.1 WNW 26 33 14 18 1009.8 1007.8 1.0
21/06:30pm 31.7 30.9 16.0 38 9.9 NNW 15 24 8 13 1009.2 1007.2 1.0
21/06:00pm 31.5 29.7 15.9 39 9.8 NNW 20 30 11 16 1008.4 1006.4 1.0
21/05:30pm 32.9 28.8 15.0 34 11.2 N 30 50 16 27 1008.1 1006.1 1.0
21/05:27pm 33.4 29.5 15.4 34 11.3 N 30 50 16 27 1008.2 1006.2 1.0
21/05:19pm 33.6 29.9 15.1 33 11.6 N 28 43 15 23 1008.3 1006.3 1.0
21/05:00pm 35.4 34.4 13.5 26 13.5 NNW 11 15 6 8 1007.6 1005.6 1.0
21/04:30pm 34.4 32.3 14.8 30 12.3 NNW 19 26 10 14 1007.6 1005.6 0.8
21/04:00pm 35.4 32.7 14.6 28 13.1 NW 22 30 12 16 1007.7 1005.7 0.8
21/03:30pm 36.9 36.7 13.6 24 14.5 N 7 11 4 6 1007.7 1005.7 0.8
21/03:00pm 33.6 31.1 18.1 39 10.2 NW 28 35 15 19 1007.9 1005.9 0.8
21/02:47pm 35.9 31.7 15.6 30 12.9 NNW 32 50 17 27 1007.8 1005.8 0.6
21/02:30pm 32.4 30.3 17.1 40 9.8 N 24 43 13 23 1008.1 1006.1 0.6
21/02:00pm 35.8 30.4 12.1 24 14.4 N 32 57 17 31 1008.8 1006.8 0.0
21/01:55pm 37.5 32.7 11.5 21 15.7 N 28 46 15 25 1008.6 1006.6 0.0
21/01:30pm 41.6 39.4 10.7 16 18.7 NNE 13 19 7 10 1008.7 1006.7 0.0
21/01:00pm 41.3 38.9 11.3 17 18.4 WNW 15 28 8 15 1009.3 1007.3 0.0
21/12:30pm 39.9 38.7 12.7 20 16.9 WNW 11 24 6 13 1009.9 1007.9 0.0
21/12:00pm 40.5 40.4 13.9 21 16.8 WNW 7 11 4 6 1010.4 1008.4 0.0
21/11:30am 40.7 39.8 14.8 22 16.6 NW 13 20 7 11 1010.8 1008.8 0.0
21/11:00am 39.5 37.5 13.8 22 16.2 NW 17 28 9 15 1011.2 1009.2 0.0
21/10:30am 39.1 37.1 15.5 25 15.2 WNW 20 30 11 16 1011.3 1009.3 0.0
21/10:00am 38.5 36.8 16.2 27 14.4 WNW 20 30 11 16 1011.6 1009.6 0.0
21/09:30am 37.8 35.5 16.7 29 13.7 WNW 24 30 13 16 1011.8 1009.8 0.0
21/09:00am 36.7 34.7 17.3 31 12.7 WNW 24 32 13 17 1011.8 1009.8 0.0
21/08:30am 36.1 34.4 18.2 34 11.8 WNW 24 32 13 17 1011.8 1009.8 0.0
21/08:00am 34.8 33.2 18.4 38 10.8 NW 24 32 13 17 1011.6 1009.6 0.0
21/07:30am 33.6 33.0 18.9 41 9.7 NNW 20 28 11 15 1011.4 1009.4 0.0
21/07:00am 31.9 30.4 13.2 32 11.3 NW 13 19 7 10 1011.3 1009.3 0.0
21/06:30am 29.4 26.5 6.7 24 12.3 NNW 11 15 6 8 1011.0 1009.0 0.0
21/06:00am 29.3 25.4 5.4 22 12.6 NNW 15 19 8 10 1010.5 1008.5 0.0
21/05:30am 28.7 25.5 4.9 22 12.4 NNW 11 13 6 7 1010.1 1008.1 0.0
21/05:00am 28.8 25.2 2.9 19 13.1 N 11 13 6 7 1009.8 1007.8 0.0
21/04:30am 30.0 25.7 3.1 18 13.7 NNE 15 20 8 11 1009.2 1007.2 0.0
21/04:00am 30.7 26.3 2.9 17 14.2 NE 15 19 8 10 1008.9 1006.9 0.0
21/03:30am 29.3 24.9 2.5 18 13.5 NNE 15 17 8 9 1008.9 1006.9 0.0
21/03:00am 28.5 25.2 2.7 19 13.0 NE 9 13 5 7 1008.8 1006.8 0.0
21/02:30am 28.6 24.6 2.7 19 13.0 NNE 13 17 7 9 1008.8 1006.8 0.0
21/02:00am 29.9 26.6 2.2 17 13.9 SE 9 11 5 6 1008.6 1006.6 0.0
21/01:30am 31.1 27.2 3.2 17 14.4 SE 13 17 7 9 1008.7 1006.7 0.0
21/01:00am 30.8 26.8 2.9 17 14.3 SE 13 15 7 8 1008.9 1006.9 0.0
21/12:30am 30.7 27.2 3.7 18 14.0 SE 11 11 6 6 1009.1 1007.1 0.0
21/12:00am 31.5 28.0 3.5 17 14.5 SSE 11 13 6 7 1009.5 1007.4 0.0
 
Date/Time
EST
Temp
°C
App
Temp
°C
Dew
Point
Rel
Hum
%
Delta-T
°C
Wind Press
QNH
hPa
Press
MSL
hPa
Rain
since 9 am
mm
Dir
 
Spd
km/h
Gust
km/h
Spd
kts
Gust
kts
20/11:30pm 31.5 28.4 3.5 17 14.5 SE 9 11 5 6 1009.6 1007.5 0.0
20/11:00pm 31.6 28.3 2.7 16 14.8 ESE 9 11 5 6 1009.6 1007.5 0.0
20/10:30pm 32.8 29.7 3.7 16 15.3 SE 9 11 5 6 1009.7 1007.6 0.0
20/10:00pm 34.0 30.0 2.8 14 16.3 SSE 13 15 7 8 1009.6 1007.5 0.0
20/09:30pm 34.7 30.8 3.3 14 16.5 SSE 13 15 7 8 1009.5 1007.4 0.0
20/09:00pm 35.2 31.2 2.6 13 17.0 SSE 13 15 7 8 1009.1 1007.1 0.0
20/08:30pm 36.0 32.5 3.3 13 17.3 S 11 13 6 7 1008.9 1006.9 0.0
20/08:00pm 36.9 33.5 4.0 13 17.8 SSE 11 13 6 7 1008.6 1006.6 0.0
20/07:30pm 37.8 33.9 3.5 12 18.4 SSE 13 15 7 8 1008.2 1006.2 0.0
20/07:00pm 39.7 35.9 3.7 11 19.6 S 13 20 7 11 1007.9 1005.9 0.0
20/06:30pm 41.1 38.2 4.8 11 20.2 S 9 13 5 7 1007.5 1005.5 0.0
20/06:00pm 41.5 38.0 3.7 10 20.8 SSE 11 20 6 11 1007.3 1005.3 0.0
20/05:30pm 42.3 37.8 4.3 10 21.1 SSW 17 24 9 13 1007.2 1005.2 0.0
20/05:00pm 42.8 38.4 4.7 10 21.4 SSE 17 22 9 12 1007.0 1005.0 0.0
20/04:30pm 42.2 39.6 4.3 10 21.1 ENE 7 15 4 8 1007.0 1005.0 0.0
20/04:00pm 42.2 38.5 4.3 10 21.1 SE 13 20 7 11 1007.2 1005.2 0.0
20/03:30pm 42.8 38.4 4.7 10 21.3 SSE 17 30 9 16 1007.5 1005.5 0.0
20/03:00pm 42.9 39.6 4.8 10 21.4 SSE 11 20 6 11 1007.7 1005.7 0.0
20/02:30pm 43.0 37.7 4.9 10 21.4 SW 22 32 12 17 1008.2 1006.2 0.0
20/02:00pm 42.9 37.9 4.8 10 21.4 SSW 20 41 11 22 1008.6 1006.6 0.0
20/01:30pm 42.5 37.5 4.5 10 21.2 W 20 37 11 20 1009.1 1007.1 0.0
20/01:00pm 42.2 36.6 5.6 11 20.7 NW 24 30 13 16 1009.6 1007.5 0.0
20/12:30pm 41.8 36.7 4.0 10 20.9 WNW 20 32 11 17 1010.4 1008.4 0.0
20/12:00pm 41.5 36.8 5.1 11 20.4 WSW 19 30 10 16 1011.1 1009.1 0.0
20/11:30am 39.7 35.9 3.7 11 19.6 SW 13 20 7 11 1011.4 1009.4 0.0
20/11:00am 39.9 37.2 3.9 11 19.7 NNE 7 11 4 6 1011.8 1009.8 0.0
20/10:30am 39.5 35.3 3.6 11 19.5 NE 15 20 8 11 1012.0 1010.0 0.0
20/10:00am 39.2 34.8 4.6 12 19.0 ENE 17 22 9 12 1012.1 1010.1 0.0
20/09:30am 37.4 32.3 3.2 12 18.2 NE 19 28 10 15 1012.2 1010.2 0.0
20/09:00am 35.8 30.3 2.0 12 17.5 ENE 20 28 11 15 1012.3 1010.3 0.0
20/08:30am 34.7 29.1 1.1 12 17.1 NE 20 30 11 16 1012.4 1010.4 0.0
20/08:00am 33.6 28.6 1.4 13 16.3 NE 17 22 9 12 1012.3 1010.3 0.0
20/07:30am 32.2 28.3 1.3 14 15.5 E 11 17 6 9 1012.1 1010.1 0.0
20/07:00am 27.9 25.2 2.9 20 12.6 NNE 6 7 3 4 1012.0 1010.0 0.0
20/06:30am 25.2 22.6 4.3 26 10.6 NE 7 9 4 5 1011.9 1009.9 0.0
20/06:00am 24.1 20.8 2.3 24 10.6 NNE 9 9 5 5 1011.6 1009.6 0.0
20/05:30am 23.1 19.7 2.0 25 10.1 NNE 9 11 5 6 1011.4 1009.4 0.0
20/05:00am 23.4 21.7 1.7 24 10.3 CALM 0 0 0 0 1011.1 1009.1 0.0
20/04:30am 24.3 21.3 1.9 23 10.8 S 7 9 4 5 1011.0 1009.0 0.0
20/04:00am 25.5 21.8 2.2 22 11.4 S 11 13 6 7 1010.9 1008.9 0.0
20/03:30am 24.7 21.8 2.8 24 10.7 S 7 9 4 5 1010.8 1008.8 0.0
20/03:00am 24.2 22.5 1.8 23 10.8 CALM 0 0 0 0 1010.6 1008.6 0.0
20/02:30am 25.9 24.4 3.2 23 11.3 CALM 0 0 0 0 1010.6 1008.6 0.0
20/02:00am 25.2 23.4 1.3 21 11.5 CALM 0 4 0 2 1010.7 1008.7 0.0
20/01:30am 27.9 24.9 2.2 19 12.7 S 7 9 4 5 1010.8 1008.8 0.0
20/01:00am 28.5 25.6 2.7 19 13.0 S 7 9 4 5 1011.0 1009.0 0.0
20/12:30am 29.2 25.5 2.5 18 13.4 S 11 11 6 6 1011.2 1009.2 0.0
20/12:00am 29.5 25.9 2.7 18 13.6 S 11 13 6 7 1011.3 1009.3 0.0
 
Date/Time
EST
Temp
°C
App
Temp
°C
Dew
Point
Rel
Hum
%
Delta-T
°C
Wind Press
QNH
hPa
Press
MSL
hPa
Rain
since 9 am
mm
Dir
 
Spd
km/h
Gust
km/h
Spd
kts
Gust
kts
19/11:30pm 29.9 26.7 3.0 18 13.7 S 9 9 5 5 1011.6 1009.6 0.0
19/11:00pm 30.4 27.3 3.4 18 13.9 S 9 9 5 5 1011.8 1009.8 0.0
19/10:30pm 30.9 27.7 3.0 17 14.3 S 9 9 5 5 1011.8 1009.8 0.0
19/10:00pm 31.7 28.5 2.8 16 14.8 SSE 9 11 5 6 1011.7 1009.7 0.0
19/09:30pm 33.3 29.5 4.1 16 15.4 S 13 15 7 8 1011.5 1009.5 0.0
19/09:00pm 33.8 30.3 3.6 15 15.9 S 11 15 6 8 1011.4 1009.4 0.0
19/08:30pm 34.8 30.9 3.4 14 16.6 S 13 15 7 8 1011.2 1009.2 0.0
19/08:00pm 35.1 31.6 3.6 14 16.7 S 11 13 6 7 1011.2 1009.2 0.0
19/07:30pm 36.5 33.0 3.7 13 17.5 S 11 15 6 8 1010.9 1008.9 0.0
19/07:00pm 37.5 33.8 4.4 13 18.0 SSW 13 19 7 10 1010.5 1008.5 0.0
19/06:30pm 38.9 34.1 4.4 12 18.9 SW 19 24 10 13 1010.2 1008.2 0.0
19/06:00pm 39.6 35.6 4.9 12 19.2 SSW 15 24 8 13 1010.0 1008.0 0.0
19/05:30pm 39.7 35.7 5.0 12 19.2 SSW 15 24 8 13 1009.9 1007.9 0.0
19/05:00pm 40.4 35.5 4.3 11 19.9 WSW 19 26 10 14 1010.1 1008.1 0.0
19/04:30pm 40.8 35.0 4.6 11 20.1 SW 24 32 13 17 1010.1 1008.1 0.0
19/04:00pm 40.3 36.9 4.2 11 19.9 SSW 11 17 6 9 1010.5 1008.5 0.0
19/03:30pm 41.2 38.3 4.9 11 20.2 SW 9 22 5 12 1010.9 1008.9 0.0
19/03:00pm 40.5 37.2 4.3 11 20.0 WSW 11 24 6 13 1011.4 1009.4 0.0
19/02:30pm 39.9 36.9 3.9 11 19.7 WSW 9 24 5 13 1011.8 1009.8 0.0
19/02:00pm 39.5 35.3 3.6 11 19.5 SE 15 26 8 14 1012.3 1010.3 0.0
19/01:30pm 39.8 36.0 3.8 11 19.6 SW 13 24 7 13 1012.8 1010.9 0.0
19/01:00pm 38.2 34.5 2.6 11 18.9 SSE 11 20 6 11 1013.5 1011.5 0.0
19/12:30pm 38.8 35.2 3.1 11 19.2 SSE 11 19 6 10 1014.2 1012.2 0.0
19/12:00pm 37.9 33.8 2.4 11 18.7 SE 13 20 7 11 1014.7 1012.7 0.0
19/11:30am 37.4 32.9 2.0 11 18.5 SE 15 22 8 12 1015.2 1013.2 0.0
19/11:00am 36.1 32.6 1.0 11 17.9 ESE 9 17 5 9 1015.7 1013.7 0.0
19/10:30am 36.2 31.5 1.1 11 18.0 E 15 26 8 14 1016.0 1014.1 0.0
19/10:00am 35.2 30.8 0.3 11 17.5 E 13 24 7 13 1016.4 1014.5 0.0
19/09:30am 33.7 28.8 -0.8 11 16.9 E 15 22 8 12 1016.6 1014.7 0.0
19/09:00am 32.4 27.1 -0.6 12 16.1 E 17 26 9 14 1016.8 1014.8 0.0
19/08:30am 31.1 26.0 -1.6 12 15.5 ESE 15 20 8 11 1016.8 1014.8 0.0
19/08:00am 29.2 24.5 -2.0 13 14.5 S 13 19 7 10 1016.4 1014.5 0.0
19/07:30am 27.7 22.8 -3.2 13 13.9 S 13 17 7 9 1016.2 1014.3 0.0
19/07:00am 25.9 21.0 -3.6 14 13.0 S 13 17 7 9 1016.0 1014.1 0.0
19/06:30am 24.2 19.3 -3.2 16 12.0 S 13 17 7 9 1015.4 1013.4 0.0

Other Formats:

Comma delimited format used in spreadsheet applications
http://www.bom.gov.au/fwo/IDQ60801/IDQ60801.94336.axf

JavaScript Object Notation format (JSON) in row-major order
http://www.bom.gov.au/fwo/IDQ60801/IDQ60801.94336.json